createdAt,value
2023-01-09T00:02:57.224Z,82.82
2023-01-09T00:05:59.697Z,83.39
2023-01-09T00:09:02.356Z,82.94
2023-01-09T00:12:05.027Z,82.84
2023-01-09T00:15:08.207Z,82.86
2023-01-09T00:18:10.933Z,82.56
2023-01-09T00:21:14.400Z,83.06
2023-01-09T00:24:17.009Z,82.78
2023-01-09T00:27:19.521Z,82.72
2023-01-09T00:30:21.993Z,82.85
2023-01-09T00:33:42.945Z,82.07
2023-01-09T00:36:45.347Z,81.73
2023-01-09T00:39:48.214Z,81.43
2023-01-09T00:42:55.941Z,81.49
2023-01-09T00:46:00.086Z,81.05
2023-01-09T00:49:04.584Z,80.44
2023-01-09T00:52:09.929Z,79.93
2023-01-09T00:55:14.225Z,80.01
2023-01-09T00:58:17.013Z,79.55
2023-01-09T01:01:19.607Z,79.43
2023-01-09T01:04:40.522Z,79.26
2023-01-09T01:07:43.426Z,78.49
2023-01-09T01:10:49.003Z,78.08
2023-01-09T01:13:51.965Z,78.30
2023-01-09T01:16:54.484Z,78.27
2023-01-09T01:19:57.228Z,77.89
2023-01-09T01:22:59.839Z,77.65
2023-01-09T01:26:11.328Z,77.50
2023-01-09T01:29:14.234Z,77.91
2023-01-09T01:32:16.796Z,78.29
2023-01-09T01:35:19.300Z,77.62
2023-01-09T01:38:21.967Z,78.23
2023-01-09T01:41:31.083Z,78.20
2023-01-09T01:45:01.341Z,77.99
2023-01-09T01:48:09.608Z,78.24
2023-01-09T01:51:15.680Z,78.13
2023-01-09T01:54:24.655Z,77.78
2023-01-09T01:57:27.145Z,78.01
2023-01-09T02:00:37.124Z,77.74
2023-01-09T02:03:42.250Z,78.29
2023-01-09T02:06:47.236Z,78.04
2023-01-09T02:09:49.953Z,78.51
2023-01-09T02:12:52.499Z,78.73
2023-01-09T02:16:15.153Z,79.16
2023-01-09T02:19:43.892Z,78.68
2023-01-09T02:23:14.431Z,79.74
2023-01-09T02:27:19.086Z,79.21
2023-01-09T02:30:37.416Z,79.45
2023-01-09T02:34:00.466Z,79.94
2023-01-09T02:37:22.064Z,80.23
2023-01-09T02:40:43.511Z,80.71
2023-01-09T02:43:45.884Z,81.37
2023-01-09T02:46:59.146Z,82.04
2023-01-09T02:50:05.212Z,82.56
2023-01-09T02:53:33.889Z,82.91
2023-01-09T02:57:00.942Z,83.52
2023-01-09T03:00:33.093Z,83.83
2023-01-09T03:03:49.080Z,84.54
2023-01-09T03:07:23.925Z,84.48
2023-01-09T03:10:43.172Z,84.57
2023-01-09T03:13:53.565Z,84.85
2023-01-09T03:16:59.630Z,85.30
2023-01-09T03:20:05.278Z,85.27
2023-01-09T03:23:08.344Z,85.45
2023-01-09T03:26:11.520Z,85.54
2023-01-09T03:29:13.968Z,85.60
2023-01-09T03:32:16.322Z,85.97
2023-01-09T03:35:18.784Z,86.16
2023-01-09T03:38:21.328Z,86.05
2023-01-09T03:41:24.080Z,86.00
2023-01-09T03:44:26.531Z,86.33
2023-01-09T03:47:28.992Z,86.43
2023-01-09T03:50:31.766Z,86.30
2023-01-09T03:53:34.336Z,86.24
2023-01-09T03:56:36.779Z,86.16
2023-01-09T03:59:39.919Z,86.01
2023-01-09T04:02:43.468Z,85.92
2023-01-09T04:05:48.027Z,85.94
2023-01-09T04:08:50.644Z,86.12
2023-01-09T04:11:54.103Z,86.22
2023-01-09T04:14:56.584Z,86.27
2023-01-09T04:17:59.056Z,86.39
2023-01-09T04:21:01.580Z,86.56
2023-01-09T04:24:04.469Z,85.93
2023-01-09T04:27:06.914Z,85.67
2023-01-09T04:30:09.968Z,85.46
2023-01-09T04:33:12.410Z,84.71
2023-01-09T04:36:18.237Z,85.32
2023-01-09T04:39:21.545Z,85.13
2023-01-09T04:42:24.578Z,85.15
2023-01-09T04:45:27.176Z,85.22
2023-01-09T04:48:29.582Z,85.17
2023-01-09T04:51:32.464Z,85.26
2023-01-09T04:54:34.939Z,84.84
2023-01-09T04:57:37.825Z,85.23
2023-01-09T05:00:40.427Z,85.50
2023-01-09T05:03:42.905Z,85.69
2023-01-09T05:06:45.319Z,85.64
2023-01-09T05:09:48.016Z,85.85
2023-01-09T05:12:52.566Z,86.03
2023-01-09T05:15:55.009Z,86.14
2023-01-09T05:18:57.943Z,85.94
2023-01-09T05:22:00.389Z,85.93
2023-01-09T05:25:03.269Z,85.98
2023-01-09T05:28:05.737Z,86.41
2023-01-09T05:31:08.215Z,86.43
2023-01-09T05:34:10.578Z,86.35
2023-01-09T05:37:13.136Z,86.23
2023-01-09T05:40:15.820Z,86.05
2023-01-09T05:43:18.283Z,86.20
2023-01-09T05:46:20.953Z,85.85
2023-01-09T05:49:23.531Z,85.50
2023-01-09T05:52:26.145Z,84.97
2023-01-09T05:55:28.684Z,84.62
2023-01-09T05:58:31.128Z,84.74
2023-01-09T06:01:33.709Z,84.77
2023-01-09T06:04:36.331Z,85.19
2023-01-09T06:07:40.761Z,85.46
2023-01-09T06:10:46.008Z,84.70
2023-01-09T06:13:48.497Z,85.15
2023-01-09T06:16:50.949Z,85.22
2023-01-09T06:19:53.455Z,85.49
2023-01-09T06:22:55.981Z,84.81
2023-01-09T06:25:58.526Z,85.55
2023-01-09T06:29:01.814Z,85.16
2023-01-09T06:32:05.225Z,85.21
2023-01-09T06:35:08.117Z,85.56
2023-01-09T06:38:11.011Z,85.15
2023-01-09T06:41:14.008Z,85.57
2023-01-09T06:44:16.656Z,85.74
2023-01-09T06:47:19.432Z,86.11
2023-01-09T06:50:22.083Z,86.06
2023-01-09T06:53:24.844Z,85.81
2023-01-09T06:56:27.980Z,85.66
2023-01-09T06:59:31.321Z,85.86
2023-01-09T07:02:33.868Z,85.84
2023-01-09T07:05:42.957Z,85.28
2023-01-09T07:08:47.836Z,84.95
2023-01-09T07:11:50.931Z,84.88
2023-01-09T07:14:53.950Z,84.33
2023-01-09T07:17:57.237Z,83.98
2023-01-09T07:21:00.165Z,83.09
2023-01-09T07:24:02.624Z,82.20
2023-01-09T07:27:05.244Z,82.57
2023-01-09T07:30:08.961Z,81.95
2023-01-09T07:33:11.549Z,80.77
2023-01-09T07:36:14.456Z,79.69
2023-01-09T07:39:17.313Z,79.77
2023-01-09T07:42:19.946Z,79.36
2023-01-09T07:45:22.519Z,78.62
2023-01-09T07:48:25.505Z,78.74
2023-01-09T07:51:28.132Z,77.88
2023-01-09T07:54:31.204Z,77.70
2023-01-09T07:57:33.697Z,77.02
2023-01-09T08:00:36.389Z,77.06
2023-01-09T08:03:39.011Z,76.89
2023-01-09T08:06:41.433Z,77.46
2023-01-09T08:09:43.923Z,76.89
2023-01-09T08:12:47.722Z,77.63
2023-01-09T08:15:50.517Z,77.16
2023-01-09T08:18:53.093Z,77.36
2023-01-09T08:21:55.747Z,76.81
2023-01-09T08:24:58.338Z,76.70
2023-01-09T08:28:01.064Z,76.91
2023-01-09T08:31:03.625Z,76.65
2023-01-09T08:34:06.580Z,76.86
2023-01-09T08:37:09.200Z,77.04
2023-01-09T08:40:13.513Z,77.59
2023-01-09T08:43:34.537Z,77.79
2023-01-09T08:46:56.199Z,77.81
2023-01-09T08:49:59.020Z,77.81
2023-01-09T08:53:01.618Z,78.38
2023-01-09T08:56:04.283Z,79.12
2023-01-09T08:59:06.722Z,79.31
2023-01-09T09:02:10.206Z,80.13
2023-01-09T09:05:12.660Z,80.02
2023-01-09T09:08:17.452Z,80.58
2023-01-09T09:11:20.142Z,80.09
2023-01-09T09:14:41.459Z,80.59
2023-01-09T09:17:44.698Z,80.93
2023-01-09T09:20:47.226Z,80.43
2023-01-09T09:23:49.755Z,81.25
2023-01-09T09:26:52.156Z,81.25
2023-01-09T09:29:54.690Z,81.19
2023-01-09T09:32:57.401Z,81.28
2023-01-09T09:36:00.624Z,80.73
2023-01-09T09:39:03.265Z,80.57
2023-01-09T09:42:55.537Z,80.75
2023-01-09T09:46:18.677Z,80.97
2023-01-09T09:49:35.627Z,80.58
2023-01-09T09:52:53.664Z,81.52
2023-01-09T09:55:57.751Z,81.80
2023-01-09T09:59:05.192Z,82.33
2023-01-09T10:02:50.600Z,81.79
2023-01-09T10:05:54.446Z,81.79
2023-01-09T10:09:41.441Z,82.95
2023-01-09T10:12:53.828Z,83.28
2023-01-09T10:16:15.168Z,82.75
2023-01-09T10:19:20.944Z,82.98
2023-01-09T10:22:41.720Z,83.34
2023-01-09T10:26:00.825Z,82.80
2023-01-09T10:29:41.781Z,83.44
2023-01-09T10:33:03.815Z,83.61
2023-01-09T10:36:15.291Z,83.22
2023-01-09T10:39:35.316Z,84.19
2023-01-09T10:42:41.047Z,83.88
2023-01-09T10:45:54.599Z,84.21
2023-01-09T10:49:02.797Z,84.13
2023-01-09T10:52:18.467Z,84.36
2023-01-09T10:55:39.915Z,84.23
2023-01-09T10:58:42.365Z,84.65
2023-01-09T11:01:45.127Z,84.91
2023-01-09T11:04:47.922Z,84.86
2023-01-09T11:07:56.220Z,85.32
2023-01-09T11:11:01.006Z,85.20
2023-01-09T11:14:15.173Z,85.56
2023-01-09T11:17:21.040Z,84.92
2023-01-09T11:20:23.475Z,84.37
2023-01-09T11:23:33.553Z,84.93
2023-01-09T11:26:36.384Z,85.19
2023-01-09T11:29:41.617Z,85.17
2023-01-09T11:32:45.983Z,85.28
2023-01-09T11:36:01.938Z,85.03
2023-01-09T11:39:04.557Z,85.31
2023-01-09T11:42:18.977Z,85.33
2023-01-09T11:45:34.514Z,84.98
2023-01-09T11:48:54.974Z,84.30
2023-01-09T11:52:24.781Z,84.39
2023-01-09T11:55:32.057Z,84.36
2023-01-09T11:58:40.680Z,84.75
2023-01-09T12:02:13.972Z,84.59
2023-01-09T12:05:29.039Z,84.90
2023-01-09T12:08:37.811Z,84.67
2023-01-09T12:11:59.062Z,84.78
2023-01-09T12:15:29.471Z,85.28
2023-01-09T12:18:37.997Z,84.93
2023-01-09T12:21:58.184Z,84.87
2023-01-09T12:25:20.995Z,84.69
2023-01-09T12:28:38.587Z,84.51
2023-01-09T12:32:06.048Z,84.45
2023-01-09T12:35:26.903Z,84.75
2023-01-09T12:38:54.555Z,84.17
2023-01-09T12:42:00.068Z,84.17
2023-01-09T12:45:32.619Z,84.52
2023-01-09T12:48:57.832Z,85.21
2023-01-09T12:52:06.931Z,85.03
2023-01-09T12:55:15.648Z,85.03
2023-01-09T12:58:34.028Z,84.92
2023-01-09T13:01:45.228Z,84.88
2023-01-09T13:05:08.933Z,84.72
2023-01-09T13:08:20.445Z,84.85
2023-01-09T13:11:38.145Z,84.91
2023-01-09T13:14:56.460Z,83.43
2023-01-09T13:18:09.699Z,84.02
2023-01-09T13:21:13.640Z,83.52
2023-01-09T13:24:24.714Z,83.75
2023-01-09T13:27:34.515Z,84.35
2023-01-09T13:30:54.380Z,85.38
2023-01-09T13:33:59.212Z,85.30
2023-01-09T13:37:01.934Z,85.34
2023-01-09T13:40:26.517Z,84.81
2023-01-09T13:43:53.614Z,85.78
2023-01-09T13:46:59.921Z,86.72
2023-01-09T13:50:26.953Z,86.96
2023-01-09T13:53:31.794Z,87.09
2023-01-09T13:57:13.349Z,86.49
2023-01-09T14:00:36.934Z,86.79
2023-01-09T14:03:39.518Z,86.51
2023-01-09T14:06:44.920Z,86.63
2023-01-09T14:09:54.537Z,86.93
2023-01-09T14:12:58.267Z,87.07
2023-01-09T14:16:10.721Z,87.24
2023-01-09T14:19:26.741Z,87.03
2023-01-09T14:22:45.698Z,86.64
2023-01-09T14:26:16.003Z,87.07
2023-01-09T14:29:38.183Z,87.32
2023-01-09T14:32:44.851Z,87.22
2023-01-09T14:36:10.306Z,86.82
2023-01-09T14:39:14.053Z,87.25
2023-01-09T14:42:23.298Z,87.15
2023-01-09T14:45:27.233Z,87.19
2023-01-09T14:48:31.767Z,87.13
2023-01-09T14:51:38.733Z,87.35
2023-01-09T14:54:43.799Z,87.48
2023-01-09T14:57:46.323Z,88.00
2023-01-09T15:00:53.653Z,88.39
2023-01-09T15:04:01.417Z,88.07
2023-01-09T15:07:06.419Z,87.64
2023-01-09T15:10:17.383Z,87.45
2023-01-09T15:13:45.006Z,87.66
2023-01-09T15:16:47.540Z,87.50
2023-01-09T15:19:50.738Z,87.77
2023-01-09T15:22:54.863Z,87.28
2023-01-09T15:26:12.446Z,87.06
2023-01-09T15:29:20.569Z,87.17
2023-01-09T15:32:27.713Z,87.80
2023-01-09T15:35:30.505Z,88.00
2023-01-09T15:38:36.026Z,87.73
2023-01-09T15:41:57.210Z,87.79
2023-01-09T15:44:59.742Z,87.71
2023-01-09T15:48:26.636Z,87.67
2023-01-09T15:51:29.654Z,87.81
2023-01-09T15:54:33.538Z,88.21
2023-01-09T15:57:36.165Z,88.31
2023-01-09T16:00:41.970Z,88.78
2023-01-09T16:03:44.604Z,88.88
2023-01-09T16:06:50.480Z,88.99
2023-01-09T16:09:53.000Z,88.58
2023-01-09T16:12:55.834Z,88.33
2023-01-09T16:16:01.397Z,88.58
2023-01-09T16:19:04.194Z,88.82
2023-01-09T16:22:28.896Z,88.79
2023-01-09T16:25:34.200Z,88.51
2023-01-09T16:28:40.715Z,88.58
2023-01-09T16:31:43.310Z,88.20
2023-01-09T16:34:52.247Z,88.61
2023-01-09T16:37:54.867Z,89.11
2023-01-09T16:41:31.567Z,88.99
2023-01-09T16:44:34.345Z,88.67
2023-01-09T16:47:36.805Z,88.77
2023-01-09T16:50:40.302Z,88.70
2023-01-09T16:53:42.985Z,88.68
2023-01-09T16:56:50.751Z,89.03
2023-01-09T16:59:53.258Z,88.60
2023-01-09T17:02:57.342Z,88.50
2023-01-09T17:06:01.457Z,88.22
2023-01-09T17:09:04.017Z,88.00
2023-01-09T17:12:12.478Z,88.65
2023-01-09T17:15:15.253Z,88.68
2023-01-09T17:18:20.213Z,88.60
2023-01-09T17:21:28.924Z,88.38
2023-01-09T17:24:57.757Z,88.85
2023-01-09T17:28:19.462Z,88.66
2023-01-09T17:31:21.924Z,88.23
2023-01-09T17:34:24.400Z,88.04
2023-01-09T17:37:26.874Z,88.03
2023-01-09T17:40:29.651Z,87.98
2023-01-09T17:43:32.812Z,88.62
2023-01-09T17:46:37.659Z,88.73
2023-01-09T17:49:41.804Z,88.70
2023-01-09T17:52:44.761Z,88.81
2023-01-09T17:55:47.258Z,88.79
2023-01-09T17:58:50.100Z,88.36
2023-01-09T18:01:52.644Z,88.44
2023-01-09T18:04:55.162Z,88.72
2023-01-09T18:07:57.756Z,88.93
2023-01-09T18:11:05.091Z,88.90
2023-01-09T18:14:08.860Z,89.14
2023-01-09T18:17:13.115Z,89.30
2023-01-09T18:20:16.094Z,89.46
2023-01-09T18:23:18.825Z,89.46
2023-01-09T18:26:22.215Z,89.02
2023-01-09T18:29:24.973Z,89.08
2023-01-09T18:32:27.480Z,89.07
2023-01-09T18:35:30.955Z,89.07
2023-01-09T18:38:33.901Z,89.93
2023-01-09T18:41:36.606Z,89.41
2023-01-09T18:44:39.475Z,89.36
2023-01-09T18:47:41.989Z,88.95
2023-01-09T18:50:45.883Z,88.64
2023-01-09T18:53:48.974Z,89.01
2023-01-09T18:56:51.749Z,88.71
2023-01-09T18:59:54.465Z,88.87
2023-01-09T19:02:57.237Z,89.37
2023-01-09T19:06:01.279Z,89.18
2023-01-09T19:09:04.180Z,89.41
2023-01-09T19:12:06.950Z,89.48
2023-01-09T19:15:11.597Z,89.57
2023-01-09T19:18:15.769Z,89.90
2023-01-09T19:21:21.196Z,89.51
2023-01-09T19:24:24.604Z,89.40
2023-01-09T19:27:30.602Z,89.11
2023-01-09T19:30:34.803Z,88.70
2023-01-09T19:33:37.756Z,88.71
2023-01-09T19:36:40.656Z,89.10
2023-01-09T19:39:43.319Z,88.98
2023-01-09T19:42:45.791Z,89.05
2023-01-09T19:45:48.494Z,89.15
2023-01-09T19:48:51.903Z,88.85
2023-01-09T19:51:55.877Z,88.39
2023-01-09T19:54:58.607Z,88.74
2023-01-09T19:58:01.074Z,88.95
2023-01-09T20:01:11.849Z,89.20
2023-01-09T20:04:17.360Z,89.41
2023-01-09T20:07:21.325Z,89.36
2023-01-09T20:10:23.922Z,89.94
2023-01-09T20:13:26.409Z,89.82
2023-01-09T20:16:30.753Z,89.72
2023-01-09T20:19:33.758Z,90.41
2023-01-09T20:22:36.559Z,89.93
2023-01-09T20:25:39.542Z,89.79
2023-01-09T20:28:42.628Z,90.04
2023-01-09T20:31:45.396Z,89.84
2023-01-09T20:34:47.902Z,89.84
2023-01-09T20:37:51.723Z,89.88
2023-01-09T20:40:54.196Z,89.76
2023-01-09T20:44:24.027Z,89.84
2023-01-09T20:47:26.537Z,89.62
2023-01-09T20:50:29.033Z,89.57
2023-01-09T20:53:31.610Z,89.25
2023-01-09T20:56:36.223Z,89.57
2023-01-09T20:59:39.245Z,88.86
2023-01-09T21:02:41.753Z,89.22
2023-01-09T21:05:44.315Z,89.58
2023-01-09T21:08:47.328Z,89.55
2023-01-09T21:11:50.042Z,89.55
2023-01-09T21:14:52.695Z,89.33
2023-01-09T21:17:55.879Z,89.43
2023-01-09T21:21:02.782Z,89.54
2023-01-09T21:24:07.580Z,89.91
2023-01-09T21:27:10.148Z,89.62
2023-01-09T21:30:13.252Z,89.78
2023-01-09T21:33:22.515Z,89.67
2023-01-09T21:36:25.079Z,89.53
2023-01-09T21:39:27.665Z,89.63
2023-01-09T21:42:48.329Z,89.34
2023-01-09T21:46:19.586Z,89.58
2023-01-09T21:49:25.466Z,89.40
2023-01-09T21:52:28.429Z,89.54
2023-01-09T21:55:33.955Z,89.75
2023-01-09T21:58:36.396Z,89.76
2023-01-09T22:01:39.205Z,89.60
2023-01-09T22:04:43.079Z,89.72
2023-01-09T22:07:45.584Z,89.35
2023-01-09T22:10:55.388Z,89.31
2023-01-09T22:13:58.304Z,89.59
2023-01-09T22:17:00.736Z,89.38
2023-01-09T22:20:03.359Z,89.61
2023-01-09T22:23:05.970Z,89.89
2023-01-09T22:26:13.210Z,89.66
2023-01-09T22:29:16.378Z,89.97
2023-01-09T22:32:18.879Z,89.89
2023-01-09T22:35:21.373Z,89.88
2023-01-09T22:38:23.871Z,89.77
2023-01-09T22:41:29.621Z,89.81
2023-01-09T22:44:32.155Z,90.10
2023-01-09T22:47:34.552Z,89.78
2023-01-09T22:50:37.204Z,89.99
2023-01-09T22:53:39.612Z,90.08
2023-01-09T22:56:42.087Z,90.28
2023-01-09T22:59:45.263Z,90.25
2023-01-09T23:02:48.871Z,90.14
2023-01-09T23:06:05.757Z,89.81
2023-01-09T23:09:08.219Z,89.78
2023-01-09T23:12:10.695Z,89.82
2023-01-09T23:15:13.252Z,90.39
2023-01-09T23:18:15.674Z,90.12
2023-01-09T23:21:18.104Z,89.92
2023-01-09T23:24:20.802Z,90.01
2023-01-09T23:27:23.279Z,89.98
2023-01-09T23:30:25.734Z,89.94
2023-01-09T23:33:28.352Z,89.74
2023-01-09T23:36:30.918Z,89.83
2023-01-09T23:39:33.437Z,90.16
2023-01-09T23:42:54.421Z,90.37
2023-01-09T23:45:56.821Z,89.86
2023-01-09T23:48:59.373Z,90.05
2023-01-09T23:52:04.963Z,89.99
2023-01-09T23:55:08.088Z,89.75
2023-01-09T23:58:11.251Z,89.47
